sensor_id;sensor_type;location;lat;lon;timestamp;pressure;altitude;pressure_sealevel;temperature;humidity
8416;BME280;4245;42.120;24.732;2023-01-27T00:00:17;98584.75;;;2.51;100.00
8416;BME280;4245;42.120;24.732;2023-01-27T00:02:44;98581.03;;;2.55;100.00
8416;BME280;4245;42.120;24.732;2023-01-27T00:05:13;98599.84;;;2.63;100.00
8416;BME280;4245;42.120;24.732;2023-01-27T00:07:40;98611.72;;;2.53;100.00
8416;BME280;4245;42.120;24.732;2023-01-27T00:10:12;98615.97;;;2.56;100.00
8416;BME280;4245;42.120;24.732;2023-01-27T00:12:41;98612.00;;;2.47;100.00
8416;BME280;4245;42.120;24.732;2023-01-27T00:15:33;98617.66;;;2.57;100.00
8416;BME280;4245;42.120;24.732;2023-01-27T00:18:00;98602.06;;;2.37;100.00
8416;BME280;4245;42.120;24.732;2023-01-27T00:20:27;98595.09;;;2.36;100.00
8416;BME280;4245;42.120;24.732;2023-01-27T00:23:14;98582.34;;;2.28;100.00
8416;BME280;4245;42.120;24.732;2023-01-27T00:25:58;98582.00;;;2.36;100.00
8416;BME280;4245;42.120;24.732;2023-01-27T00:28:26;98572.22;;;2.39;100.00
8416;BME280;4245;42.120;24.732;2023-01-27T00:30:57;98563.22;;;2.45;100.00
8416;BME280;4245;42.120;24.732;2023-01-27T00:33:25;98564.06;;;2.45;100.00
8416;BME280;4245;42.120;24.732;2023-01-27T00:36:02;98562.69;;;2.55;100.00
8416;BME280;4245;42.120;24.732;2023-01-27T00:38:31;98565.94;;;2.60;100.00
8416;BME280;4245;42.120;24.732;2023-01-27T00:40:57;98575.19;;;2.50;100.00
8416;BME280;4245;42.120;24.732;2023-01-27T00:43:45;98571.94;;;2.45;100.00
8416;BME280;4245;42.120;24.732;2023-01-27T00:46:14;98565.59;;;2.49;100.00
8416;BME280;4245;42.120;24.732;2023-01-27T00:48:41;98566.41;;;2.51;100.00
8416;BME280;4245;42.120;24.732;2023-01-27T00:51:08;98565.03;;;2.43;100.00
8416;BME280;4245;42.120;24.732;2023-01-27T00:53:35;98569.00;;;2.51;100.00
8416;BME280;4245;42.120;24.732;2023-01-27T00:56:02;98564.06;;;2.45;100.00
8416;BME280;4245;42.120;24.732;2023-01-27T00:58:29;98552.09;;;2.57;100.00
8416;BME280;4245;42.120;24.732;2023-01-27T01:00:57;98542.41;;;2.59;100.00
8416;BME280;4245;42.120;24.732;2023-01-27T01:03:27;98537.56;;;2.51;100.00
8416;BME280;4245;42.120;24.732;2023-01-27T01:05:56;98513.88;;;2.53;100.00
8416;BME280;4245;42.120;24.732;2023-01-27T01:08:22;98506.16;;;2.50;100.00
8416;BME280;4245;42.120;24.732;2023-01-27T01:10:49;98495.63;;;2.51;100.00
8416;BME280;4245;42.120;24.732;2023-01-27T01:13:16;98495.22;;;2.42;100.00
8416;BME280;4245;42.120;24.732;2023-01-27T01:15:44;98485.75;;;2.39;100.00
8416;BME280;4245;42.120;24.732;2023-01-27T01:18:10;98501.16;;;2.45;100.00
8416;BME280;4245;42.120;24.732;2023-01-27T01:20:41;98543.50;;;2.55;100.00
8416;BME280;4245;42.120;24.732;2023-01-27T01:23:08;98565.94;;;2.60;100.00
8416;BME280;4245;42.120;24.732;2023-01-27T01:25:35;98570.09;;;2.65;100.00
8416;BME280;4245;42.120;24.732;2023-01-27T01:28:03;98568.06;;;2.52;100.00
8416;BME280;4245;42.120;24.732;2023-01-27T01:30:32;98561.06;;;2.53;100.00
8416;BME280;4245;42.120;24.732;2023-01-27T01:32:59;98543.56;;;2.53;100.00
8416;BME280;4245;42.120;24.732;2023-01-27T01:35:26;98543.16;;;2.44;100.00
8416;BME280;4245;42.120;24.732;2023-01-27T01:37:55;98532.75;;;2.42;100.00
8416;BME280;4245;42.120;24.732;2023-01-27T01:40:21;98530.22;;;2.58;100.00
8416;BME280;4245;42.120;24.732;2023-01-27T01:42:57;98524.84;;;2.61;100.00
8416;BME280;4245;42.120;24.732;2023-01-27T01:45:51;98531.00;;;2.60;100.00
8416;BME280;4245;42.120;24.732;2023-01-27T01:48:29;98527.91;;;2.52;100.00
8416;BME280;4245;42.120;24.732;2023-01-27T01:51:00;98524.69;;;2.47;100.00
8416;BME280;4245;42.120;24.732;2023-01-27T01:53:35;98512.09;;;2.53;100.00
8416;BME280;4245;42.120;24.732;2023-01-27T01:56:07;98500.69;;;2.72;100.00
8416;BME280;4245;42.120;24.732;2023-01-27T01:58:36;98501.78;;;2.68;100.00
8416;BME280;4245;42.120;24.732;2023-01-27T02:01:05;98502.84;;;2.63;100.00
8416;BME280;4245;42.120;24.732;2023-01-27T02:03:33;98506.63;;;2.75;100.00
8416;BME280;4245;42.120;24.732;2023-01-27T02:06:00;98499.44;;;2.61;100.00
8416;BME280;4245;42.120;24.732;2023-01-27T02:08:32;98501.88;;;2.66;100.00
8416;BME280;4245;42.120;24.732;2023-01-27T02:11:00;98493.84;;;2.69;100.00
8416;BME280;4245;42.120;24.732;2023-01-27T02:13:27;98480.34;;;2.59;100.00
8416;BME280;4245;42.120;24.732;2023-01-27T02:15:54;98477.78;;;2.58;100.00
8416;BME280;4245;42.120;24.732;2023-01-27T02:18:21;98473.69;;;2.52;100.00
8416;BME280;4245;42.120;24.732;2023-01-27T02:20:49;98469.84;;;2.59;100.00
8416;BME280;4245;42.120;24.732;2023-01-27T02:23:38;98464.63;;;2.59;100.00
8416;BME280;4245;42.120;24.732;2023-01-27T02:26:13;98449.81;;;2.58;100.00
8416;BME280;4245;42.120;24.732;2023-01-27T02:28:41;98451.94;;;2.68;100.00
8416;BME280;4245;42.120;24.732;2023-01-27T02:31:08;98433.47;;;2.71;100.00
8416;BME280;4245;42.120;24.732;2023-01-27T02:33:35;98445.69;;;2.87;100.00
8416;BME280;4245;42.120;24.732;2023-01-27T02:36:05;98455.63;;;2.98;100.00
8416;BME280;4245;42.120;24.732;2023-01-27T02:38:34;98451.91;;;3.02;100.00
8416;BME280;4245;42.120;24.732;2023-01-27T02:41:06;98455.00;;;2.93;100.00
8416;BME280;4245;42.120;24.732;2023-01-27T02:43:36;98442.81;;;2.92;100.00
8416;BME280;4245;42.120;24.732;2023-01-27T02:46:03;98439.75;;;2.84;100.00
8416;BME280;4245;42.120;24.732;2023-01-27T02:48:29;98449.31;;;2.85;100.00
8416;BME280;4245;42.120;24.732;2023-01-27T02:50:56;98441.22;;;2.89;100.00
8416;BME280;4245;42.120;24.732;2023-01-27T02:53:23;98439.28;;;2.93;100.00
8416;BME280;4245;42.120;24.732;2023-01-27T02:55:50;98445.72;;;3.03;100.00
8416;BME280;4245;42.120;24.732;2023-01-27T02:58:17;98453.84;;;2.98;100.00
8416;BME280;4245;42.120;24.732;2023-01-27T03:00:45;98434.13;;;3.07;100.00
8416;BME280;4245;42.120;24.732;2023-01-27T03:03:12;98433.97;;;3.10;100.00
8416;BME280;4245;42.120;24.732;2023-01-27T03:05:39;98424.56;;;3.06;100.00
8416;BME280;4245;42.120;24.732;2023-01-27T03:08:06;98423.47;;;3.10;100.00
8416;BME280;4245;42.120;24.732;2023-01-27T03:10:33;98419.66;;;3.16;100.00
8416;BME280;4245;42.120;24.732;2023-01-27T03:13:00;98417.41;;;3.10;100.00
8416;BME280;4245;42.120;24.732;2023-01-27T03:15:27;98422.66;;;3.10;100.00
8416;BME280;4245;42.120;24.732;2023-01-27T03:18:12;98420.13;;;3.24;100.00
8416;BME280;4245;42.120;24.732;2023-01-27T03:20:41;98418.00;;;3.30;100.00
8416;BME280;4245;42.120;24.732;2023-01-27T03:23:08;98430.53;;;3.25;100.00
8416;BME280;4245;42.120;24.732;2023-01-27T03:25:35;98445.75;;;3.19;100.00
8416;BME280;4245;42.120;24.732;2023-01-27T03:28:05;98456.50;;;3.14;100.00
8416;BME280;4245;42.120;24.732;2023-01-27T03:30:32;98452.94;;;3.15;100.00
8416;BME280;4245;42.120;24.732;2023-01-27T03:32:59;98453.28;;;3.09;100.00
8416;BME280;4245;42.120;24.732;2023-01-27T03:35:29;98462.22;;;3.05;100.00
8416;BME280;4245;42.120;24.732;2023-01-27T03:38:04;98442.31;;;3.01;100.00
8416;BME280;4245;42.120;24.732;2023-01-27T03:40:49;98428.97;;;3.05;100.00
8416;BME280;4245;42.120;24.732;2023-01-27T03:43:33;98444.44;;;3.10;100.00
8416;BME280;4245;42.120;24.732;2023-01-27T03:46:18;98439.81;;;2.99;100.00
8416;BME280;4245;42.120;24.732;2023-01-27T03:48:47;98429.81;;;3.06;100.00
8416;BME280;4245;42.120;24.732;2023-01-27T03:51:17;98432.97;;;3.13;100.00
8416;BME280;4245;42.120;24.732;2023-01-27T03:53:45;98432.13;;;3.12;100.00
8416;BME280;4245;42.120;24.732;2023-01-27T03:56:12;98429.41;;;3.14;100.00
8416;BME280;4245;42.120;24.732;2023-01-27T03:58:39;98440.16;;;3.25;100.00
8416;BME280;4245;42.120;24.732;2023-01-27T04:01:12;98434.31;;;3.20;100.00
8416;BME280;4245;42.120;24.732;2023-01-27T04:03:39;98438.38;;;3.25;100.00
8416;BME280;4245;42.120;24.732;2023-01-27T04:06:26;98423.50;;;3.26;100.00
8416;BME280;4245;42.120;24.732;2023-01-27T04:09:12;98413.44;;;3.18;100.00
8416;BME280;4245;42.120;24.732;2023-01-27T04:11:39;98418.50;;;3.21;100.00
8416;BME280;4245;42.120;24.732;2023-01-27T04:14:24;98411.81;;;3.16;100.00
8416;BME280;4245;42.120;24.732;2023-01-27T04:16:53;98406.31;;;3.04;100.00
8416;BME280;4245;42.120;24.732;2023-01-27T04:19:21;98403.50;;;3.08;100.00
8416;BME280;4245;42.120;24.732;2023-01-27T04:21:49;98416.63;;;3.08;100.00
8416;BME280;4245;42.120;24.732;2023-01-27T04:24:16;98410.59;;;3.05;100.00
8416;BME280;4245;42.120;24.732;2023-01-27T04:26:49;98402.09;;;3.18;100.00
8416;BME280;4245;42.120;24.732;2023-01-27T04:29:17;98408.69;;;3.25;100.00
8416;BME280;4245;42.120;24.732;2023-01-27T04:31:44;98402.59;;;3.24;100.00
8416;BME280;4245;42.120;24.732;2023-01-27T04:34:11;98397.59;;;3.20;100.00
8416;BME280;4245;42.120;24.732;2023-01-27T04:36:38;98387.19;;;3.18;100.00
8416;BME280;4245;42.120;24.732;2023-01-27T04:39:08;98397.44;;;3.23;100.00
8416;BME280;4245;42.120;24.732;2023-01-27T04:41:35;98389.22;;;3.13;100.00
8416;BME280;4245;42.120;24.732;2023-01-27T04:44:03;98396.41;;;3.10;100.00
8416;BME280;4245;42.120;24.732;2023-01-27T04:46:30;98397.22;;;3.10;100.00
8416;BME280;4245;42.120;24.732;2023-01-27T04:48:57;98398.25;;;3.08;100.00
8416;BME280;4245;42.120;24.732;2023-01-27T04:51:24;98399.19;;;3.22;100.00
8416;BME280;4245;42.120;24.732;2023-01-27T04:53:51;98399.19;;;3.22;100.00
8416;BME280;4245;42.120;24.732;2023-01-27T04:56:25;98397.44;;;3.23;100.00
8416;BME280;4245;42.120;24.732;2023-01-27T04:58:53;98396.22;;;3.13;100.00
8416;BME280;4245;42.120;24.732;2023-01-27T05:01:20;98397.84;;;3.15;100.00
8416;BME280;4245;42.120;24.732;2023-01-27T05:03:47;98392.94;;;3.09;100.00
8416;BME280;4245;42.120;24.732;2023-01-27T05:06:14;98393.97;;;3.22;100.00
8416;BME280;4245;42.120;24.732;2023-01-27T05:08:41;98397.09;;;3.13;100.00
8416;BME280;4245;42.120;24.732;2023-01-27T05:11:08;98409.44;;;3.27;100.00
8416;BME280;4245;42.120;24.732;2023-01-27T05:13:37;98406.91;;;3.25;100.00
8416;BME280;4245;42.120;24.732;2023-01-27T05:16:10;98415.38;;;3.30;100.00
8416;BME280;4245;42.120;24.732;2023-01-27T05:18:38;98418.78;;;3.32;100.00
8416;BME280;4245;42.120;24.732;2023-01-27T05:21:06;98432.63;;;3.34;100.00
8416;BME280;4245;42.120;24.732;2023-01-27T05:23:33;98441.63;;;3.30;100.00
8416;BME280;4245;42.120;24.732;2023-01-27T05:26:05;98432.81;;;3.31;100.00
8416;BME280;4245;42.120;24.732;2023-01-27T05:28:32;98439.44;;;3.38;100.00
8416;BME280;4245;42.120;24.732;2023-01-27T05:31:04;98421.81;;;3.40;100.00
8416;BME280;4245;42.120;24.732;2023-01-27T05:33:33;98423.19;;;3.47;100.00
8416;BME280;4245;42.120;24.732;2023-01-27T05:36:01;98425.03;;;3.45;100.00
8416;BME280;4245;42.120;24.732;2023-01-27T05:38:29;98433.75;;;3.46;100.00
8416;BME280;4245;42.120;24.732;2023-01-27T05:40:58;98432.16;;;3.43;100.00
8416;BME280;4245;42.120;24.732;2023-01-27T05:43:27;98435.38;;;3.48;100.00
8416;BME280;4245;42.120;24.732;2023-01-27T05:46:02;98434.53;;;3.48;100.00
8416;BME280;4245;42.120;24.732;2023-01-27T05:48:29;98437.16;;;3.48;100.00
8416;BME280;4245;42.120;24.732;2023-01-27T05:50:57;98442.31;;;3.49;100.00
8416;BME280;4245;42.120;24.732;2023-01-27T05:53:25;98441.78;;;3.59;100.00
8416;BME280;4245;42.120;24.732;2023-01-27T05:55:52;98439.94;;;3.61;100.00
8416;BME280;4245;42.120;24.732;2023-01-27T05:58:20;98438.44;;;3.57;100.00
8416;BME280;4245;42.120;24.732;2023-01-27T06:00:47;98441.13;;;3.55;100.00
8416;BME280;4245;42.120;24.732;2023-01-27T06:03:16;98427.50;;;3.48;100.00
8416;BME280;4245;42.120;24.732;2023-01-27T06:05:53;98434.78;;;3.43;100.00
8416;BME280;4245;42.120;24.732;2023-01-27T06:08:21;98434.78;;;3.43;100.00
8416;BME280;4245;42.120;24.732;2023-01-27T06:10:48;98423.06;;;3.49;100.00
8416;BME280;4245;42.120;24.732;2023-01-27T06:13:15;98408.69;;;3.40;100.00
8416;BME280;4245;42.120;24.732;2023-01-27T06:15:43;98411.84;;;3.47;100.00
8416;BME280;4245;42.120;24.732;2023-01-27T06:18:11;98407.84;;;3.56;100.00
8416;BME280;4245;42.120;24.732;2023-01-27T06:20:40;98400.81;;;3.56;100.00
8416;BME280;4245;42.120;24.732;2023-01-27T06:23:07;98415.22;;;3.65;100.00
8416;BME280;4245;42.120;24.732;2023-01-27T06:25:35;98420.63;;;3.62;100.00
8416;BME280;4245;42.120;24.732;2023-01-27T06:28:03;98430.03;;;3.66;100.00
8416;BME280;4245;42.120;24.732;2023-01-27T06:30:30;98439.44;;;3.70;100.00
8416;BME280;4245;42.120;24.732;2023-01-27T06:32:57;98437.06;;;3.81;100.00
8416;BME280;4245;42.120;24.732;2023-01-27T06:35:24;98433.50;;;3.66;100.00
8416;BME280;4245;42.120;24.732;2023-01-27T06:37:53;98439.16;;;3.59;100.00
8416;BME280;4245;42.120;24.732;2023-01-27T06:40:20;98433.25;;;3.71;100.00
8416;BME280;4245;42.120;24.732;2023-01-27T06:42:47;98435.34;;;3.80;100.00
8416;BME280;4245;42.120;24.732;2023-01-27T06:45:14;98435.88;;;3.86;100.00
8416;BME280;4245;42.120;24.732;2023-01-27T06:47:41;98436.72;;;3.87;100.00
8416;BME280;4245;42.120;24.732;2023-01-27T06:50:09;98435.09;;;4.00;100.00
8416;BME280;4245;42.120;24.732;2023-01-27T06:52:37;98428.72;;;4.04;100.00
8416;BME280;4245;42.120;24.732;2023-01-27T06:55:06;98417.34;;;4.04;100.00
8416;BME280;4245;42.120;24.732;2023-01-27T06:57:33;98424.97;;;4.08;100.00
8416;BME280;4245;42.120;24.732;2023-01-27T06:59:59;98424.22;;;4.06;100.00
8416;BME280;4245;42.120;24.732;2023-01-27T07:02:26;98420.13;;;4.16;100.00
8416;BME280;4245;42.120;24.732;2023-01-27T07:04:53;98424.81;;;4.11;100.00
8416;BME280;4245;42.120;24.732;2023-01-27T07:07:20;98426.44;;;4.28;100.00
8416;BME280;4245;42.120;24.732;2023-01-27T07:09:47;98435.25;;;4.27;100.00
8416;BME280;4245;42.120;24.732;2023-01-27T07:12:16;98428.56;;;4.21;100.00
8416;BME280;4245;42.120;24.732;2023-01-27T07:14:42;98432.56;;;4.28;100.00
8416;BME280;4245;42.120;24.732;2023-01-27T07:17:09;98430.19;;;4.24;100.00
8416;BME280;4245;42.120;24.732;2023-01-27T07:19:36;98438.59;;;4.30;100.00
8416;BME280;4245;42.120;24.732;2023-01-27T07:22:03;98441.22;;;4.30;100.00
8416;BME280;4245;42.120;24.732;2023-01-27T07:24:30;98437.63;;;4.31;100.00
8416;BME280;4245;42.120;24.732;2023-01-27T07:26:57;98447.97;;;4.34;100.00
8416;BME280;4245;42.120;24.732;2023-01-27T07:29:25;98446.78;;;4.40;100.00
8416;BME280;4245;42.120;24.732;2023-01-27T07:31:52;98450.81;;;4.46;100.00
8416;BME280;4245;42.120;24.732;2023-01-27T07:34:19;98450.81;;;4.46;100.00
8416;BME280;4245;42.120;24.732;2023-01-27T07:36:46;98445.19;;;4.52;100.00
8416;BME280;4245;42.120;24.732;2023-01-27T07:39:13;98442.13;;;4.59;100.00
8416;BME280;4245;42.120;24.732;2023-01-27T07:41:40;98447.66;;;4.55;100.00
8416;BME280;4245;42.120;24.732;2023-01-27T07:46:51;98432.53;;;4.58;100.00
8416;BME280;4245;42.120;24.732;2023-01-27T07:49:18;98433.97;;;4.64;100.00
8416;BME280;4245;42.120;24.732;2023-01-27T07:51:45;98429.56;;;4.64;100.00
8416;BME280;4245;42.120;24.732;2023-01-27T07:54:12;98430.00;;;4.71;100.00
8416;BME280;4245;42.120;24.732;2023-01-27T07:56:38;98426.66;;;4.69;100.00
8416;BME280;4245;42.120;24.732;2023-01-27T07:59:05;98436.41;;;4.67;100.00
8416;BME280;4245;42.120;24.732;2023-01-27T08:01:32;98432.06;;;4.66;100.00
8416;BME280;4245;42.120;24.732;2023-01-27T08:04:00;98435.84;;;4.90;100.00
8416;BME280;4245;42.120;24.732;2023-01-27T08:06:27;98436.13;;;4.86;100.00
8416;BME280;4245;42.120;24.732;2023-01-27T08:08:54;98435.22;;;4.87;100.00
8416;BME280;4245;42.120;24.732;2023-01-27T08:11:21;98434.06;;;4.91;100.00
8416;BME280;4245;42.120;24.732;2023-01-27T08:13:48;98447.22;;;4.76;100.00
8416;BME280;4245;42.120;24.732;2023-01-27T08:16:14;98440.06;;;4.64;100.00
8416;BME280;4245;42.120;24.732;2023-01-27T08:18:41;98433.94;;;4.50;100.00
8416;BME280;4245;42.120;24.732;2023-01-27T08:21:11;98422.00;;;4.44;100.00
8416;BME280;4245;42.120;24.732;2023-01-27T08:23:38;98421.25;;;4.56;100.00
8416;BME280;4245;42.120;24.732;2023-01-27T08:26:06;98415.06;;;4.57;100.00
8416;BME280;4245;42.120;24.732;2023-01-27T08:28:35;98411.16;;;4.64;100.00
8416;BME280;4245;42.120;24.732;2023-01-27T08:31:03;98389.81;;;4.69;100.00
8416;BME280;4245;42.120;24.732;2023-01-27T08:33:30;98390.13;;;4.78;100.00
8416;BME280;4245;42.120;24.732;2023-01-27T08:36:02;98384.44;;;4.85;100.00
8416;BME280;4245;42.120;24.732;2023-01-27T08:38:30;98386.34;;;4.82;100.00
8416;BME280;4245;42.120;24.732;2023-01-27T08:41:02;98386.72;;;4.91;100.00
8416;BME280;4245;42.120;24.732;2023-01-27T08:43:29;98384.72;;;4.94;100.00
8416;BME280;4245;42.120;24.732;2023-01-27T08:45:57;98394.88;;;5.14;100.00
8416;BME280;4245;42.120;24.732;2023-01-27T08:48:25;98393.06;;;5.29;100.00
8416;BME280;4245;42.120;24.732;2023-01-27T08:50:53;98394.47;;;5.35;100.00
8416;BME280;4245;42.120;24.732;2023-01-27T08:53:20;98399.56;;;5.23;100.00
8416;BME280;4245;42.120;24.732;2023-01-27T08:55:48;98408.16;;;5.13;100.00
8416;BME280;4245;42.120;24.732;2023-01-27T08:58:16;98412.88;;;4.94;100.00
8416;BME280;4245;42.120;24.732;2023-01-27T09:00:43;98407.75;;;4.91;100.00
8416;BME280;4245;42.120;24.732;2023-01-27T09:03:09;98405.69;;;4.96;100.00
8416;BME280;4245;42.120;24.732;2023-01-27T09:05:37;98404.13;;;4.93;100.00
8416;BME280;4245;42.120;24.732;2023-01-27T09:08:04;98406.06;;;5.04;100.00
8416;BME280;4245;42.120;24.732;2023-01-27T09:10:31;98406.91;;;5.18;100.00
8416;BME280;4245;42.120;24.732;2023-01-27T09:12:59;98407.03;;;5.17;100.00
8416;BME280;4245;42.120;24.732;2023-01-27T09:15:26;98393.09;;;5.01;100.00
8416;BME280;4245;42.120;24.732;2023-01-27T09:17:53;98401.09;;;4.99;100.00
8416;BME280;4245;42.120;24.732;2023-01-27T09:20:20;98399.97;;;5.03;100.00
8416;BME280;4245;42.120;24.732;2023-01-27T09:22:47;98391.31;;;5.15;100.00
8416;BME280;4245;42.120;24.732;2023-01-27T09:25:16;98383.03;;;5.21;100.00
8416;BME280;4245;42.120;24.732;2023-01-27T09:27:43;98382.63;;;5.42;100.00
8416;BME280;4245;42.120;24.732;2023-01-27T09:30:13;98375.47;;;5.44;100.00
8416;BME280;4245;42.120;24.732;2023-01-27T09:32:40;98367.31;;;5.34;100.00
8416;BME280;4245;42.120;24.732;2023-01-27T09:35:08;98361.06;;;5.49;100.00
8416;BME280;4245;42.120;24.732;2023-01-27T09:37:38;98356.09;;;5.45;100.00
8416;BME280;4245;42.120;24.732;2023-01-27T09:40:13;98350.22;;;5.54;100.00
8416;BME280;4245;42.120;24.732;2023-01-27T09:43:02;98346.34;;;5.59;100.00
8416;BME280;4245;42.120;24.732;2023-01-27T09:45:57;98341.56;;;5.52;100.00
8416;BME280;4245;42.120;24.732;2023-01-27T09:48:43;98338.84;;;5.53;100.00
8416;BME280;4245;42.120;24.732;2023-01-27T09:51:20;98346.09;;;5.50;100.00
8416;BME280;4245;42.120;24.732;2023-01-27T09:54:08;98348.69;;;5.64;100.00
8416;BME280;4245;42.120;24.732;2023-01-27T09:56:45;98349.69;;;5.49;100.00
8416;BME280;4245;42.120;24.732;2023-01-27T09:59:26;98348.69;;;5.64;100.00
8416;BME280;4245;42.120;24.732;2023-01-27T10:02:06;98356.72;;;5.48;100.00
8416;BME280;4245;42.120;24.732;2023-01-27T10:04:51;98350.31;;;5.52;100.00
8416;BME280;4245;42.120;24.732;2023-01-27T10:07:32;98348.22;;;5.57;100.00
8416;BME280;4245;42.120;24.732;2023-01-27T10:10:17;98346.28;;;5.61;100.00
8416;BME280;4245;42.120;24.732;2023-01-27T10:12:55;98350.00;;;5.71;100.00
8416;BME280;4245;42.120;24.732;2023-01-27T10:15:34;98348.97;;;5.86;100.00
8416;BME280;4245;42.120;24.732;2023-01-27T10:18:18;98336.91;;;5.69;100.00
8416;BME280;4245;42.120;24.732;2023-01-27T10:20:55;98335.63;;;5.62;100.00
8416;BME280;4245;42.120;24.732;2023-01-27T10:23:35;98329.19;;;5.66;100.00
8416;BME280;4245;42.120;24.732;2023-01-27T10:26:17;98322.56;;;5.61;100.00
8416;BME280;4245;42.120;24.732;2023-01-27T10:28:49;98310.72;;;5.54;100.00
8416;BME280;4245;42.120;24.732;2023-01-27T10:31:22;98313.28;;;5.68;100.00
8416;BME280;4245;42.120;24.732;2023-01-27T10:33:54;98311.72;;;5.65;100.00
8416;BME280;4245;42.120;24.732;2023-01-27T10:36:26;98305.72;;;5.76;100.00
8416;BME280;4245;42.120;24.732;2023-01-27T10:39:05;98312.56;;;5.93;100.00
8416;BME280;4245;42.120;24.732;2023-01-27T10:41:43;98303.06;;;5.90;100.00
8416;BME280;4245;42.120;24.732;2023-01-27T10:47:17;98291.69;;;5.90;100.00
8416;BME280;4245;42.120;24.732;2023-01-27T10:49:49;98293.34;;;5.91;100.00
8416;BME280;4245;42.120;24.732;2023-01-27T10:52:19;98286.03;;;5.82;100.00
8416;BME280;4245;42.120;24.732;2023-01-27T10:54:52;98284.31;;;5.95;100.00
8416;BME280;4245;42.120;24.732;2023-01-27T10:57:25;98287.50;;;6.13;100.00
8416;BME280;4245;42.120;24.732;2023-01-27T11:00:01;98287.31;;;6.28;100.00
8416;BME280;4245;42.120;24.732;2023-01-27T11:02:35;98288.66;;;6.46;100.00
8416;BME280;4245;42.120;24.732;2023-01-27T11:05:08;98280.53;;;6.37;100.00
8416;BME280;4245;42.120;24.732;2023-01-27T11:07:43;98268.41;;;6.34;100.00
8416;BME280;4245;42.120;24.732;2023-01-27T11:10:15;98258.06;;;6.44;100.00
8416;BME280;4245;42.120;24.732;2023-01-27T11:12:46;98240.91;;;6.75;100.00
8416;BME280;4245;42.120;24.732;2023-01-27T11:15:17;98246.16;;;6.87;100.00
8416;BME280;4245;42.120;24.732;2023-01-27T11:17:49;98237.94;;;6.92;100.00
8416;BME280;4245;42.120;24.732;2023-01-27T11:20:27;98252.44;;;7.10;100.00
8416;BME280;4245;42.120;24.732;2023-01-27T11:22:59;98256.47;;;7.27;100.00
8416;BME280;4245;42.120;24.732;2023-01-27T11:25:43;98267.00;;;7.16;100.00
8416;BME280;4245;42.120;24.732;2023-01-27T11:28:21;98264.38;;;7.16;100.00
8416;BME280;4245;42.120;24.732;2023-01-27T11:30:57;98268.31;;;6.97;100.00
8416;BME280;4245;42.120;24.732;2023-01-27T11:33:30;98272.25;;;6.92;100.00
8416;BME280;4245;42.120;24.732;2023-01-27T11:36:03;98275.91;;;7.02;100.00
8416;BME280;4245;42.120;24.732;2023-01-27T11:38:30;98276.50;;;6.69;100.00
8416;BME280;4245;42.120;24.732;2023-01-27T11:40:57;98265.47;;;6.88;100.00
8416;BME280;4245;42.120;24.732;2023-01-27T11:43:25;98253.59;;;6.82;100.00
8416;BME280;4245;42.120;24.732;2023-01-27T11:46:00;98258.34;;;6.77;100.00
8416;BME280;4245;42.120;24.732;2023-01-27T11:48:36;98250.00;;;6.71;100.00
8416;BME280;4245;42.120;24.732;2023-01-27T11:51:12;98250.53;;;6.76;100.00
8416;BME280;4245;42.120;24.732;2023-01-27T11:53:39;98239.94;;;6.88;100.00
8416;BME280;4245;42.120;24.732;2023-01-27T11:56:13;98245.09;;;6.90;100.00
8416;BME280;4245;42.120;24.732;2023-01-27T11:58:46;98241.22;;;6.83;100.00
8416;BME280;4245;42.120;24.732;2023-01-27T12:01:16;98241.22;;;6.83;100.00
8416;BME280;4245;42.120;24.732;2023-01-27T12:03:51;98241.75;;;6.75;100.00
8416;BME280;4245;42.120;24.732;2023-01-27T12:06:30;98250.06;;;6.94;100.00
8416;BME280;4245;42.120;24.732;2023-01-27T12:08:58;98247.75;;;6.90;100.00
8416;BME280;4245;42.120;24.732;2023-01-27T12:11:26;98239.50;;;6.94;100.00
8416;BME280;4245;42.120;24.732;2023-01-27T12:13:56;98244.69;;;6.96;100.00
8416;BME280;4245;42.120;24.732;2023-01-27T12:16:26;98233.78;;;7.01;100.00
8416;BME280;4245;42.120;24.732;2023-01-27T12:19:01;98243.59;;;6.98;100.00
8416;BME280;4245;42.120;24.732;2023-01-27T12:21:41;98238.50;;;7.08;100.00
8416;BME280;4245;42.120;24.732;2023-01-27T12:24:23;98230.91;;;7.04;100.00
8416;BME280;4245;42.120;24.732;2023-01-27T12:26:50;98232.59;;;7.05;100.00
8416;BME280;4245;42.120;24.732;2023-01-27T12:29:20;98227.66;;;7.24;100.00
8416;BME280;4245;42.120;24.732;2023-01-27T12:31:52;98227.22;;;7.30;100.00
8416;BME280;4245;42.120;24.732;2023-01-27T12:34:27;98224.28;;;7.46;100.00
8416;BME280;4245;42.120;24.732;2023-01-27T12:36:57;98219.94;;;7.68;100.00
8416;BME280;4245;42.120;24.732;2023-01-27T12:39:33;98222.88;;;7.88;100.00
8416;BME280;4245;42.120;24.732;2023-01-27T12:42:01;98228.50;;;7.83;100.00
8416;BME280;4245;42.120;24.732;2023-01-27T12:44:39;98227.50;;;8.08;100.00
8416;BME280;4245;42.120;24.732;2023-01-27T12:47:20;98224.69;;;7.98;100.00
8416;BME280;4245;42.120;24.732;2023-01-27T12:49:49;98222.91;;;7.99;100.00
8416;BME280;4245;42.120;24.732;2023-01-27T12:52:19;98228.16;;;7.88;100.00
8416;BME280;4245;42.120;24.732;2023-01-27T12:54:46;98234.34;;;7.64;100.00
8416;BME280;4245;42.120;24.732;2023-01-27T12:57:18;98225.22;;;7.68;100.00
8416;BME280;4245;42.120;24.732;2023-01-27T12:59:48;98221.31;;;7.50;100.00
8416;BME280;4245;42.120;24.732;2023-01-27T13:02:18;98227.75;;;7.46;100.00
8416;BME280;4245;42.120;24.732;2023-01-27T13:04:50;98232.34;;;7.44;100.00
8416;BME280;4245;42.120;24.732;2023-01-27T13:07:23;98226.22;;;7.20;100.00
8416;BME280;4245;42.120;24.732;2023-01-27T13:09:53;98225.28;;;7.08;100.00
8416;BME280;4245;42.120;24.732;2023-01-27T13:12:23;98221.28;;;7.15;100.00
8416;BME280;4245;42.120;24.732;2023-01-27T13:14:53;98214.41;;;7.13;100.00
8416;BME280;4245;42.120;24.732;2023-01-27T13:17:29;98219.81;;;7.11;100.00
8416;BME280;4245;42.120;24.732;2023-01-27T13:20:04;98211.03;;;7.11;100.00
8416;BME280;4245;42.120;24.732;2023-01-27T13:22:39;98217.69;;;7.16;100.00
8416;BME280;4245;42.120;24.732;2023-01-27T13:25:14;98220.50;;;7.26;100.00
8416;BME280;4245;42.120;24.732;2023-01-27T13:27:43;98214.81;;;7.19;100.00
8416;BME280;4245;42.120;24.732;2023-01-27T13:30:20;98229.28;;;7.37;100.00
8416;BME280;4245;42.120;24.732;2023-01-27T13:32:50;98228.75;;;7.45;100.00